createdAt,value
2023-01-07T00:04:35.769Z,8.03
2023-01-07T00:09:37.354Z,8.04
2023-01-07T00:14:38.932Z,8.03
2023-01-07T00:19:40.503Z,8.03
2023-01-07T00:24:42.166Z,8.03
2023-01-07T00:29:43.742Z,7.99
2023-01-07T00:34:45.328Z,7.97
2023-01-07T00:39:46.905Z,7.98
2023-01-07T00:44:48.501Z,7.99
2023-01-07T00:49:50.057Z,7.97
2023-01-07T00:54:51.669Z,7.96
2023-01-07T00:59:53.432Z,7.94
2023-01-07T01:04:55.083Z,7.93
2023-01-07T01:09:56.651Z,7.88
2023-01-07T01:14:58.272Z,7.81
2023-01-07T01:20:00.192Z,7.66
2023-01-07T01:25:01.933Z,7.64
2023-01-07T01:30:05.068Z,7.45
2023-01-07T01:35:09.655Z,7.36
2023-01-07T01:40:12.336Z,7.21
2023-01-07T01:45:14.460Z,7.10
2023-01-07T01:50:23.753Z,6.97
2023-01-07T01:55:32.243Z,6.82
2023-01-07T02:00:36.657Z,6.68
2023-01-07T02:05:42.444Z,6.55
2023-01-07T02:10:44.385Z,6.43
2023-01-07T02:15:56.109Z,6.34
2023-01-07T02:21:01.591Z,6.22
2023-01-07T02:26:26.715Z,6.02
2023-01-07T02:31:47.823Z,5.67
2023-01-07T02:37:18.143Z,5.53
2023-01-07T02:42:27.059Z,5.23
2023-01-07T02:47:39.037Z,4.94
2023-01-07T02:52:41.851Z,4.68
2023-01-07T02:58:08.084Z,4.75
2023-01-07T03:04:00.700Z,4.99
2023-01-07T03:09:03.876Z,5.55
2023-01-07T03:14:22.941Z,5.91
2023-01-07T03:19:32.839Z,5.96
2023-01-07T03:24:35.759Z,5.78
2023-01-07T03:29:37.715Z,5.62
2023-01-07T03:34:42.684Z,5.67
2023-01-07T03:39:46.988Z,5.78
2023-01-07T03:44:48.942Z,5.85
2023-01-07T03:49:52.549Z,5.92
2023-01-07T03:54:54.640Z,5.91
2023-01-07T03:59:56.653Z,5.89
2023-01-07T04:04:58.680Z,5.96
2023-01-07T04:10:01.049Z,6.05
2023-01-07T04:15:04.247Z,6.18
2023-01-07T04:20:08.039Z,6.28
2023-01-07T04:25:10.913Z,6.37
2023-01-07T04:30:13.945Z,6.46
2023-01-07T04:35:15.989Z,6.58
2023-01-07T04:40:18.407Z,6.79
2023-01-07T04:45:20.317Z,7.00
2023-01-07T04:50:23.200Z,7.13
2023-01-07T04:55:25.410Z,7.24
2023-01-07T05:00:27.547Z,7.32
2023-01-07T05:05:30.409Z,7.37
2023-01-07T05:10:33.081Z,7.42
2023-01-07T05:15:36.503Z,7.43
2023-01-07T05:20:39.731Z,7.46
2023-01-07T05:25:42.629Z,7.46
2023-01-07T05:30:46.339Z,7.48
2023-01-07T05:35:49.023Z,7.44
2023-01-07T05:40:52.578Z,7.46
2023-01-07T05:45:59.251Z,7.42
2023-01-07T05:51:01.143Z,7.40
2023-01-07T05:56:03.019Z,7.39
2023-01-07T06:01:04.999Z,7.39
2023-01-07T06:06:07.451Z,7.42
2023-01-07T06:11:09.886Z,7.48
2023-01-07T06:16:14.059Z,7.52
2023-01-07T06:21:16.885Z,7.57
2023-01-07T06:26:19.060Z,7.60
2023-01-07T06:31:21.021Z,7.61
2023-01-07T06:36:22.869Z,7.59
2023-01-07T06:41:24.678Z,7.59
2023-01-07T06:46:26.577Z,7.55
2023-01-07T06:51:28.408Z,7.56
2023-01-07T06:56:30.159Z,7.56
2023-01-07T07:01:32.073Z,7.60
2023-01-07T07:06:33.908Z,7.52
2023-01-07T07:11:35.682Z,7.56
2023-01-07T07:16:37.546Z,7.56
2023-01-07T07:21:39.286Z,7.59
2023-01-07T07:26:41.397Z,7.58
2023-01-07T07:31:43.220Z,7.55
2023-01-07T07:36:45.038Z,7.59
2023-01-07T07:41:46.868Z,7.58
2023-01-07T07:46:52.415Z,7.58
2023-01-07T07:51:54.283Z,7.59
2023-01-07T07:56:58.368Z,7.63
2023-01-07T08:02:00.228Z,7.67
2023-01-07T08:07:02.200Z,7.72
2023-01-07T08:12:04.241Z,7.80
2023-01-07T08:17:06.038Z,7.75
2023-01-07T08:22:07.853Z,7.73
2023-01-07T08:27:09.690Z,7.80
2023-01-07T08:32:11.526Z,7.96
2023-01-07T08:37:13.341Z,8.08
2023-01-07T08:42:15.143Z,8.14
2023-01-07T08:47:16.959Z,8.15
2023-01-07T08:52:18.781Z,8.21
2023-01-07T08:57:20.643Z,8.19
2023-01-07T09:02:22.500Z,8.16
2023-01-07T09:07:24.489Z,8.22
2023-01-07T09:12:26.516Z,8.29
2023-01-07T09:17:28.498Z,8.53
2023-01-07T09:22:35.271Z,8.89
2023-01-07T09:27:38.715Z,9.23
2023-01-07T09:32:42.763Z,9.34
2023-01-07T09:37:44.623Z,9.51
2023-01-07T09:42:56.782Z,9.63
2023-01-07T09:48:01.293Z,9.66
2023-01-07T09:53:08.382Z,9.90
2023-01-07T09:58:18.433Z,9.52
2023-01-07T10:04:01.759Z,9.64
2023-01-07T10:09:28.457Z,9.94
2023-01-07T10:14:55.155Z,10.01
2023-01-07T10:20:33.627Z,9.89
2023-01-07T10:25:41.903Z,9.89
2023-01-07T10:30:46.893Z,10.17
2023-01-07T10:35:57.620Z,10.21
2023-01-07T10:41:07.016Z,10.04
2023-01-07T10:46:44.056Z,10.01
2023-01-07T10:52:22.186Z,9.63
2023-01-07T10:57:28.056Z,9.55
2023-01-07T11:02:30.469Z,9.69
2023-01-07T11:07:45.930Z,9.94
2023-01-07T11:12:56.494Z,10.18
2023-01-07T11:18:26.563Z,10.15
2023-01-07T11:23:32.265Z,10.04
2023-01-07T11:28:34.860Z,10.10
2023-01-07T11:34:03.252Z,10.14
2023-01-07T11:39:21.746Z,10.32
2023-01-07T11:44:23.886Z,10.35
2023-01-07T11:49:32.315Z,10.36
2023-01-07T11:54:34.167Z,10.42
2023-01-07T11:59:35.986Z,10.53
2023-01-07T12:04:37.959Z,10.37
2023-01-07T12:09:42.154Z,10.05
2023-01-07T12:14:48.557Z,9.68
2023-01-07T12:19:59.531Z,9.75
2023-01-07T12:25:23.683Z,9.75
2023-01-07T12:30:32.805Z,9.75
2023-01-07T12:35:42.015Z,9.74
2023-01-07T12:40:53.887Z,9.61
2023-01-07T12:46:10.998Z,9.40
2023-01-07T12:51:22.760Z,9.52
2023-01-07T12:56:29.742Z,9.46
2023-01-07T13:01:41.775Z,9.48
2023-01-07T13:07:28.029Z,9.43
2023-01-07T13:12:46.285Z,9.41
2023-01-07T13:17:51.302Z,9.69
2023-01-07T13:22:56.461Z,9.74
2023-01-07T13:28:16.822Z,10.01
2023-01-07T13:33:28.923Z,9.96
2023-01-07T13:38:39.889Z,10.00
2023-01-07T13:43:56.787Z,9.84
2023-01-07T13:48:58.767Z,9.76
2023-01-07T13:54:00.859Z,9.53
2023-01-07T13:59:02.684Z,9.49
2023-01-07T14:04:04.273Z,9.57
2023-01-07T14:09:08.625Z,9.45
2023-01-07T14:14:33.458Z,9.42
2023-01-07T14:19:48.113Z,9.52
2023-01-07T14:25:00.803Z,9.52
2023-01-07T14:30:17.236Z,9.30
2023-01-07T14:35:40.378Z,9.16
2023-01-07T14:40:41.979Z,9.04
2023-01-07T14:45:46.764Z,9.00
2023-01-07T14:51:19.301Z,8.90
2023-01-07T14:56:45.432Z,8.82
2023-01-07T15:02:37.084Z,8.68
2023-01-07T15:07:41.621Z,8.59
2023-01-07T15:13:05.454Z,8.53
2023-01-07T15:18:11.789Z,8.51
2023-01-07T15:23:29.832Z,8.38
2023-01-07T15:28:43.048Z,8.26
2023-01-07T15:33:58.053Z,8.19
2023-01-07T15:39:03.432Z,8.17
2023-01-07T15:44:20.369Z,8.15
2023-01-07T15:49:24.568Z,7.98
2023-01-07T15:54:34.909Z,7.88
2023-01-07T15:59:46.777Z,7.69
2023-01-07T16:04:52.565Z,7.65
2023-01-07T16:09:55.571Z,7.45
2023-01-07T16:14:57.819Z,7.25
2023-01-07T16:20:20.290Z,6.81
2023-01-07T16:25:31.627Z,6.33
2023-01-07T16:30:40.034Z,5.88
2023-01-07T16:35:44.293Z,5.53
2023-01-07T16:40:47.278Z,5.19
2023-01-07T16:46:17.567Z,4.87
2023-01-07T16:51:41.044Z,4.61
2023-01-07T16:56:51.677Z,4.58
2023-01-07T17:01:54.031Z,4.62
2023-01-07T17:07:00.402Z,4.80
2023-01-07T17:12:02.417Z,4.98
2023-01-07T17:17:14.883Z,5.09
2023-01-07T17:22:30.037Z,5.30
2023-01-07T17:27:32.019Z,5.45
2023-01-07T17:32:36.473Z,5.60
2023-01-07T17:37:38.049Z,5.66
2023-01-07T17:42:59.147Z,5.66
2023-01-07T17:48:01.481Z,5.80
2023-01-07T17:53:03.895Z,5.82
2023-01-07T17:58:17.986Z,5.73
2023-01-07T18:03:19.636Z,5.82
2023-01-07T18:08:21.343Z,5.94
2023-01-07T18:13:22.991Z,6.06
2023-01-07T18:18:25.883Z,6.22
2023-01-07T18:23:27.493Z,6.20
2023-01-07T18:28:29.124Z,6.29
2023-01-07T18:33:30.788Z,6.29
2023-01-07T18:38:32.565Z,6.21
2023-01-07T18:43:34.641Z,6.08
2023-01-07T18:48:37.172Z,5.92
2023-01-07T18:53:39.547Z,5.81
2023-01-07T18:58:43.333Z,5.77
2023-01-07T19:03:46.138Z,5.57
2023-01-07T19:08:47.787Z,5.41
2023-01-07T19:13:49.396Z,5.28
2023-01-07T19:18:52.999Z,5.17
2023-01-07T19:23:55.402Z,5.21
2023-01-07T19:28:56.976Z,5.04
2023-01-07T19:33:58.661Z,4.85
2023-01-07T19:39:00.288Z,4.59
2023-01-07T19:44:02.166Z,4.30
2023-01-07T19:49:05.417Z,4.11
2023-01-07T19:54:09.576Z,3.92
2023-01-07T19:59:11.264Z,3.71
2023-01-07T20:04:12.858Z,3.56
2023-01-07T20:09:14.521Z,3.45
2023-01-07T20:14:16.149Z,3.38
2023-01-07T20:19:17.824Z,3.32
2023-01-07T20:24:19.471Z,3.35
2023-01-07T20:29:21.116Z,3.08
2023-01-07T20:34:22.698Z,2.90
2023-01-07T20:39:24.368Z,2.84
2023-01-07T20:44:25.966Z,2.67
2023-01-07T20:49:28.241Z,2.40
2023-01-07T20:54:29.850Z,2.47
2023-01-07T20:59:31.520Z,2.15
2023-01-07T21:04:33.174Z,1.98
2023-01-07T21:09:35.061Z,1.85
2023-01-07T21:14:36.729Z,1.64
2023-01-07T21:19:38.548Z,1.55
2023-01-07T21:24:40.188Z,1.47
2023-01-07T21:29:41.807Z,1.44
2023-01-07T21:34:43.477Z,1.34
2023-01-07T21:39:45.094Z,1.38
2023-01-07T21:44:47.393Z,1.14
2023-01-07T21:49:51.510Z,1.03
2023-01-07T21:54:53.230Z,1.06
2023-01-07T21:59:54.831Z,0.89
2023-01-07T22:04:56.431Z,0.88
2023-01-07T22:09:58.030Z,0.83
2023-01-07T22:14:59.685Z,0.77
2023-01-07T22:20:01.288Z,0.88
2023-01-07T22:25:02.890Z,0.77
2023-01-07T22:30:04.985Z,0.68
2023-01-07T22:35:06.916Z,0.55
2023-01-07T22:40:09.191Z,0.55
2023-01-07T22:45:17.347Z,0.62
2023-01-07T22:50:19.205Z,0.61
2023-01-07T22:55:21.097Z,0.75
2023-01-07T23:00:46.993Z,0.86
2023-01-07T23:05:49.163Z,0.82
2023-01-07T23:10:51.013Z,0.69
2023-01-07T23:15:52.688Z,0.63
2023-01-07T23:20:54.342Z,0.82
2023-01-07T23:25:55.940Z,1.14
2023-01-07T23:31:01.643Z,1.22
2023-01-07T23:36:05.631Z,1.15
2023-01-07T23:41:09.997Z,1.05
2023-01-07T23:46:12.093Z,0.99
2023-01-07T23:51:16.780Z,1.03
2023-01-07T23:56:20.043Z,1.03
